Terminal Aerodrome Forecast
Issued by NWS Twin Cities, MN

Home | Current Version | Previous Version | Graphics & Text | Print | Product List | Glossary On
Versions: 1 2 3 4 5 6 7 8 9 10 11 12 13 14 15 16 17 18 19 20 21 22 23 24 25 26 27
000
FTUS43 KMPX 271720
TAFEAU
TAF
KEAU 271720Z 2718/2818 03004KT P6SM SCT250
     FM272100 23005KT P6SM FEW050 BKN250
     FM280900 20005KT P6SM VCSH BKN050 BKN120
      TEMPO 2810/2814 3SM SHRA OVC050
     FM281500 15006KT P6SM VCSH BKN030 OVC050=

USA.gov is the U.S. government's official web portal to all federal, state and local government web resources and services.